Time;durP1;ratioP1;P1;durP2;ratioP2;P2;SDS_P1;SDS_P2;PMS_P1;PMS_P2;Temp;Humidity;BMP_temperature;BMP_pressure;BME280_temperature;BME280_humidity;BME280_pressure;Samples;Min_cycle;Max_cycle;Signal;HPM_P1;HPM_P2
2023/12/09 00:00:02;;;;;;;35.60;23.57;;;3.30;99.90;;;;;;5017325;28;20211;-55
2023/12/09 00:02:28;;;;;;;35.77;24.80;;;3.30;99.90;;;;;;5017885;28;20211;-55
2023/12/09 00:04:54;;;;;;;37.00;23.57;;;3.30;99.90;;;;;;5024669;28;20234;-53
2023/12/09 00:07:19;;;;;;;34.93;23.73;;;3.30;99.90;;;;;;5023229;28;20619;-55
2023/12/09 00:09:44;;;;;;;38.67;23.43;;;3.30;99.90;;;;;;5019220;28;20227;-55
2023/12/09 00:12:10;;;;;;;36.43;24.47;;;3.30;99.90;;;;;;5026387;28;20226;-66
2023/12/09 00:14:36;;;;;;;36.73;24.07;;;3.30;99.90;;;;;;5005123;28;20830;-55
2023/12/09 00:17:01;;;;;;;35.83;24.07;;;3.30;99.90;;;;;;5019704;28;20194;-55
2023/12/09 00:19:27;;;;;;;40.53;22.63;;;3.30;99.90;;;;;;5025529;28;20279;-64
2023/12/09 00:21:52;;;;;;;40.57;23.80;;;3.30;99.90;;;;;;5019823;28;20614;-72
2023/12/09 00:24:17;;;;;;;36.30;24.80;;;3.40;99.90;;;;;;4999943;28;20206;-64
2023/12/09 00:26:43;;;;;;;31.73;23.13;;;3.30;99.90;;;;;;5025880;28;20215;-64
2023/12/09 00:29:08;;;;;;;36.30;23.97;;;3.40;99.90;;;;;;5026762;28;20658;-68
2023/12/09 00:31:34;;;;;;;36.70;22.97;;;3.40;99.90;;;;;;5002454;28;20210;-55
2023/12/09 00:34:00;;;;;;;36.47;24.37;;;3.40;99.90;;;;;;5021169;28;21248;-55
2023/12/09 00:36:25;;;;;;;34.17;24.97;;;3.60;99.90;;;;;;5019859;28;20210;-54
2023/12/09 00:38:51;;;;;;;36.50;24.20;;;3.70;99.90;;;;;;5000427;28;20233;-55
2023/12/09 00:41:16;;;;;;;32.87;22.53;;;3.70;99.90;;;;;;5017854;28;20206;-56
2023/12/09 00:43:42;;;;;;;31.80;21.33;;;3.40;99.90;;;;;;5025445;28;20222;-57
2023/12/09 00:46:07;;;;;;;31.47;21.90;;;3.40;99.90;;;;;;5021943;28;20231;-54
2023/12/09 00:48:33;;;;;;;34.47;21.93;;;3.30;99.90;;;;;;5024428;28;20248;-55
2023/12/09 00:50:59;;;;;;;33.77;21.40;;;3.50;99.90;;;;;;5023584;28;20306;-56
2023/12/09 00:53:24;;;;;;;35.77;23.17;;;3.50;99.90;;;;;;5018744;28;20226;-55
2023/12/09 00:55:50;;;;;;;34.87;24.43;;;3.60;99.90;;;;;;5014936;28;20238;-54
2023/12/09 00:58:16;;;;;;;35.97;23.93;;;3.70;99.90;;;;;;5020780;28;20204;-55
2023/12/09 01:00:41;;;;;;;36.27;23.40;;;3.60;99.90;;;;;;5016797;28;20196;-55
2023/12/09 01:03:07;;;;;;;35.63;23.30;;;3.50;99.90;;;;;;5025120;28;20736;-54
2023/12/09 01:05:32;;;;;;;35.27;23.50;;;3.50;99.90;;;;;;5024688;28;20222;-56
2023/12/09 01:07:58;;;;;;;33.77;22.00;;;3.40;99.90;;;;;;5020757;28;20211;-54
2023/12/09 01:10:23;;;;;;;35.17;23.73;;;3.40;99.90;;;;;;5018758;28;20910;-53
2023/12/09 01:12:49;;;;;;;38.93;25.63;;;3.40;99.90;;;;;;5023312;28;20249;-56
2023/12/09 01:15:15;;;;;;;32.17;22.53;;;3.40;99.90;;;;;;5019098;28;20202;-54
2023/12/09 01:17:41;;;;;;;34.97;22.33;;;3.50;99.90;;;;;;5011865;28;20204;-55
2023/12/09 01:20:07;;;;;;;34.07;23.40;;;3.40;99.90;;;;;;5026157;28;20218;-56
2023/12/09 01:22:33;;;;;;;38.20;22.57;;;3.40;99.90;;;;;;5023739;28;20210;-54
2023/12/09 01:24:58;;;;;;;36.23;23.10;;;3.40;99.90;;;;;;5014110;28;20219;-55
2023/12/09 01:27:24;;;;;;;37.20;22.10;;;3.30;99.90;;;;;;5024212;28;20961;-55
2023/12/09 01:29:49;;;;;;;34.20;23.47;;;3.30;99.90;;;;;;5020358;28;20231;-55
2023/12/09 01:32:15;;;;;;;37.87;22.57;;;3.30;99.90;;;;;;5019379;28;20207;-54
2023/12/09 01:34:40;;;;;;;37.83;22.30;;;3.30;99.90;;;;;;5022852;28;20259;-53
2023/12/09 01:37:06;;;;;;;37.57;24.67;;;3.30;99.90;;;;;;5018896;28;20206;-54
2023/12/09 01:39:32;;;;;;;37.77;22.63;;;3.40;99.90;;;;;;5019039;28;20207;-54
2023/12/09 01:42:00;;;;;;;36.83;23.17;;;3.50;99.90;;;;;;5016232;28;20274;-54
2023/12/09 01:44:25;;;;;;;38.20;23.77;;;3.50;99.90;;;;;;5014151;28;20250;-56
2023/12/09 01:46:51;;;;;;;35.70;24.70;;;3.40;99.90;;;;;;5014415;28;20228;-55
2023/12/09 01:49:17;;;;;;;32.20;22.17;;;3.40;99.90;;;;;;5018700;28;20187;-54
2023/12/09 01:51:43;;;;;;;35.83;23.37;;;3.30;99.90;;;;;;5022523;28;20294;-54
2023/12/09 01:54:10;;;;;;;33.80;22.73;;;3.40;99.90;;;;;;5015737;28;20227;-55
2023/12/09 01:56:36;;;;;;;35.97;21.90;;;3.40;99.90;;;;;;5019194;28;20225;-57
2023/12/09 01:59:02;;;;;;;42.33;25.00;;;3.30;99.90;;;;;;5016106;28;20233;-53
2023/12/09 02:01:31;;;;;;;37.40;22.77;;;3.40;99.90;;;;;;5013847;28;20195;-55
2023/12/09 02:03:57;;;;;;;37.17;23.47;;;3.60;99.90;;;;;;4998807;28;20641;-55
2023/12/09 02:06:23;;;;;;;38.97;23.90;;;3.60;99.90;;;;;;5011343;28;20219;-55
2023/12/09 02:08:51;;;;;;;35.37;23.33;;;3.60;99.90;;;;;;5014464;28;20880;-55
2023/12/09 02:11:35;;;;;;;33.53;21.87;;;3.60;99.90;;;;;;5016961;28;20359;-54
2023/12/09 02:14:20;;;;;;;33.70;22.93;;;3.50;99.90;;;;;;5016224;28;20227;-54
2023/12/09 02:17:10;;;;;;;33.87;23.20;;;3.50;99.90;;;;;;5013939;28;20286;-54
2023/12/09 02:19:37;;;;;;;38.53;24.57;;;3.60;99.90;;;;;;5016308;28;20217;-53
2023/12/09 02:22:05;;;;;;;37.33;23.50;;;3.70;99.90;;;;;;5016784;28;20195;-54
2023/12/09 02:24:32;;;;;;;32.93;23.17;;;3.70;99.90;;;;;;5019756;28;20276;-54
2023/12/09 02:27:02;;;;;;;34.57;23.70;;;3.70;99.90;;;;;;5011172;28;20199;-54
2023/12/09 02:29:33;;;;;;;34.47;23.50;;;3.70;99.90;;;;;;5010661;28;20196;-54
2023/12/09 02:32:04;;;;;;;35.80;23.63;;;3.70;99.90;;;;;;5015335;28;20198;-53
2023/12/09 02:34:31;;;;;;;36.67;22.50;;;3.70;99.90;;;;;;5018667;28;20211;-53
2023/12/09 02:36:58;;;;;;;36.47;24.13;;;3.70;99.90;;;;;;4999953;28;20219;-53
2023/12/09 02:39:24;;;;;;;40.10;26.07;;;3.60;99.90;;;;;;4998673;28;20537;-54
2023/12/09 02:41:51;;;;;;;42.40;26.23;;;3.60;99.90;;;;;;5018076;28;20206;-54
2023/12/09 02:44:16;;;;;;;32.47;23.57;;;3.60;99.90;;;;;;5014632;28;20204;-53
2023/12/09 02:46:42;;;;;;;35.07;23.77;;;3.70;99.90;;;;;;5016579;28;20229;-54
2023/12/09 02:49:07;;;;;;;35.37;22.93;;;3.60;99.90;;;;;;5017508;28;20312;-54
2023/12/09 02:51:33;;;;;;;33.30;22.77;;;3.60;99.90;;;;;;5019186;28;20201;-54
2023/12/09 02:53:58;;;;;;;36.03;23.30;;;3.60;99.90;;;;;;5016643;28;20598;-54
2023/12/09 02:56:23;;;;;;;45.00;26.33;;;3.50;99.90;;;;;;5013400;28;20270;-54
2023/12/09 02:58:49;;;;;;;36.63;23.17;;;3.60;99.90;;;;;;5018372;28;20582;-53
2023/12/09 03:01:14;;;;;;;35.47;23.03;;;3.60;99.90;;;;;;5014619;28;20202;-55
2023/12/09 03:03:40;;;;;;;38.93;25.37;;;3.60;99.90;;;;;;5018515;28;20224;-54
2023/12/09 03:06:06;;;;;;;42.73;26.27;;;3.70;99.90;;;;;;5018262;28;20471;-54
2023/12/09 03:08:31;;;;;;;38.87;25.33;;;3.70;99.90;;;;;;5000979;28;20197;-55
2023/12/09 03:10:57;;;;;;;42.47;26.10;;;3.70;99.90;;;;;;5014924;28;20688;-55
2023/12/09 03:13:23;;;;;;;41.43;26.93;;;3.80;99.90;;;;;;5015323;28;20313;-55
2023/12/09 03:15:49;;;;;;;42.47;24.93;;;3.70;99.90;;;;;;5014280;28;20195;-54
2023/12/09 03:18:14;;;;;;;45.40;25.27;;;3.60;99.90;;;;;;5013364;28;20211;-54
2023/12/09 03:20:40;;;;;;;37.30;24.73;;;3.60;99.90;;;;;;4998198;28;20266;-55
2023/12/09 03:23:06;;;;;;;42.43;24.73;;;3.80;99.90;;;;;;5021119;28;20586;-54
2023/12/09 03:25:32;;;;;;;42.97;26.83;;;3.80;99.90;;;;;;5021494;28;20215;-55
2023/12/09 03:27:58;;;;;;;44.73;26.77;;;3.90;99.90;;;;;;5017174;28;20197;-55
2023/12/09 03:30:23;;;;;;;43.33;24.83;;;4.00;99.90;;;;;;5021232;28;20209;-55
2023/12/09 03:32:49;;;;;;;41.87;26.13;;;4.00;99.90;;;;;;5013963;28;20215;-54
2023/12/09 03:35:14;;;;;;;45.07;26.20;;;4.00;99.90;;;;;;5023884;28;20746;-54
2023/12/09 03:37:40;;;;;;;42.23;25.47;;;4.00;99.90;;;;;;5023011;28;21105;-55
2023/12/09 03:40:07;;;;;;;43.90;25.47;;;3.90;99.90;;;;;;5018358;28;20517;-54
2023/12/09 03:42:32;;;;;;;41.97;25.67;;;4.00;99.90;;;;;;5011009;28;20262;-54
2023/12/09 03:44:58;;;;;;;48.17;26.73;;;4.00;99.90;;;;;;4994608;28;20226;-55
2023/12/09 03:47:23;;;;;;;47.27;27.77;;;3.90;99.90;;;;;;5014161;28;20262;-55
2023/12/09 03:49:49;;;;;;;51.20;27.20;;;3.90;99.90;;;;;;5009377;28;20203;-54
2023/12/09 03:52:14;;;;;;;48.50;26.80;;;3.80;99.90;;;;;;5019061;28;20272;-55
2023/12/09 03:54:40;;;;;;;45.10;26.17;;;3.80;99.90;;;;;;4996812;28;20207;-54
2023/12/09 03:57:05;;;;;;;44.67;29.13;;;3.80;99.90;;;;;;5014707;28;21219;-66
2023/12/09 03:59:31;;;;;;;47.87;29.30;;;3.90;99.90;;;;;;5018934;28;20420;-54
2023/12/09 04:01:56;;;;;;;50.23;29.70;;;3.80;99.90;;;;;;5016890;28;20189;-54
2023/12/09 04:04:22;;;;;;;50.93;30.00;;;3.80;99.90;;;;;;5024234;28;20545;-54
2023/12/09 04:06:49;;;;;;;46.43;27.50;;;3.90;99.90;;;;;;5025701;28;20215;-53
2023/12/09 04:09:16;;;;;;;49.60;27.83;;;3.90;99.90;;;;;;5017665;28;20191;-54
2023/12/09 04:11:41;;;;;;;52.57;30.07;;;3.90;99.90;;;;;;5000801;28;20467;-55
2023/12/09 04:14:07;;;;;;;52.50;30.33;;;3.90;99.90;;;;;;5002125;28;20223;-54
2023/12/09 04:16:33;;;;;;;54.20;29.20;;;3.90;99.90;;;;;;5024399;28;20202;-54
2023/12/09 04:18:58;;;;;;;52.30;30.80;;;4.00;99.90;;;;;;5005801;28;20722;-54
2023/12/09 04:21:24;;;;;;;51.10;30.53;;;3.90;99.90;;;;;;5026434;28;20759;-54
2023/12/09 04:23:49;;;;;;;50.53;30.03;;;4.00;99.90;;;;;;5019699;28;20218;-54
2023/12/09 04:26:15;;;;;;;67.10;33.60;;;4.00;99.90;;;;;;5019969;28;20215;-55
2023/12/09 04:28:40;;;;;;;55.60;31.47;;;4.10;99.90;;;;;;4997917;28;20526;-55
2023/12/09 04:31:06;;;;;;;52.97;31.70;;;4.00;99.90;;;;;;5015140;28;20730;-55
2023/12/09 04:33:31;;;;;;;54.17;29.93;;;4.00;99.90;;;;;;5022675;28;20261;-53
2023/12/09 04:35:57;;;;;;;49.13;29.50;;;4.00;99.90;;;;;;5019018;28;20707;-54
2023/12/09 04:38:22;;;;;;;55.70;31.90;;;4.00;99.90;;;;;;5020833;28;20192;-54
2023/12/09 04:40:48;;;;;;;53.47;31.83;;;4.20;99.90;;;;;;5017081;28;20208;-54
2023/12/09 04:43:13;;;;;;;53.30;31.83;;;4.20;99.90;;;;;;5004326;28;20756;-55
2023/12/09 04:45:39;;;;;;;54.13;32.20;;;4.10;99.90;;;;;;5014850;28;20227;-54
2023/12/09 04:48:05;;;;;;;61.97;31.97;;;4.00;99.90;;;;;;5022555;28;20744;-54
2023/12/09 04:50:31;;;;;;;55.77;32.77;;;4.10;99.90;;;;;;5005680;28;20195;-55
2023/12/09 04:52:56;;;;;;;53.20;30.17;;;4.10;99.90;;;;;;5018167;28;20234;-56
2023/12/09 04:55:22;;;;;;;55.17;30.13;;;4.10;99.90;;;;;;5015646;28;20226;-55
2023/12/09 04:57:47;;;;;;;56.00;30.57;;;4.10;99.90;;;;;;5017263;28;20202;-55
2023/12/09 05:00:13;;;;;;;58.03;32.57;;;4.00;99.90;;;;;;5020679;28;20273;-55
2023/12/09 05:02:39;;;;;;;60.67;34.57;;;4.10;99.90;;;;;;4998945;28;20467;-54
2023/12/09 05:05:04;;;;;;;58.57;33.40;;;4.10;99.90;;;;;;4997089;28;20302;-54
2023/12/09 05:07:31;;;;;;;58.07;34.03;;;4.10;99.90;;;;;;5029495;28;20265;-55
2023/12/09 05:09:56;;;;;;;53.43;33.30;;;4.20;99.90;;;;;;4999679;28;20666;-56
2023/12/09 05:12:22;;;;;;;55.53;34.83;;;4.20;99.90;;;;;;5018244;28;20199;-55
2023/12/09 05:14:47;;;;;;;61.37;32.70;;;4.20;99.90;;;;;;5017120;28;20224;-55
2023/12/09 05:17:14;;;;;;;59.00;33.37;;;4.20;99.90;;;;;;5017882;28;20977;-54
2023/12/09 05:19:39;;;;;;;55.87;35.03;;;4.20;99.90;;;;;;5018861;28;20298;-54
2023/12/09 05:22:05;;;;;;;59.47;34.53;;;4.10;99.90;;;;;;5020538;28;20776;-55
2023/12/09 05:24:30;;;;;;;62.23;35.30;;;4.20;99.90;;;;;;5020141;28;20198;-54
2023/12/09 05:26:57;;;;;;;65.50;35.40;;;4.10;99.90;;;;;;5018915;28;20847;-54
2023/12/09 05:29:23;;;;;;;66.93;33.97;;;4.10;99.90;;;;;;4996521;28;20249;-55
2023/12/09 05:31:49;;;;;;;59.53;32.83;;;4.20;99.90;;;;;;5014884;28;20214;-55
2023/12/09 05:34:14;;;;;;;62.07;32.53;;;4.20;99.90;;;;;;5015161;28;20688;-54
2023/12/09 05:36:40;;;;;;;56.17;32.80;;;4.20;99.90;;;;;;5020527;28;20814;-55
2023/12/09 05:39:06;;;;;;;57.77;32.67;;;4.20;99.90;;;;;;5017285;28;20513;-55
2023/12/09 05:41:32;;;;;;;57.93;33.57;;;4.00;99.90;;;;;;5012825;28;20210;-55
2023/12/09 05:43:57;;;;;;;66.80;33.27;;;4.20;99.90;;;;;;5014525;28;20272;-56
2023/12/09 05:46:23;;;;;;;63.07;33.93;;;4.20;99.90;;;;;;5015467;28;20853;-55
2023/12/09 05:48:49;;;;;;;56.23;32.27;;;4.20;99.90;;;;;;5014667;28;20233;-55
2023/12/09 05:51:14;;;;;;;59.27;31.13;;;4.20;99.90;;;;;;5015669;28;20336;-55
2023/12/09 05:53:41;;;;;;;54.67;31.03;;;4.20;99.90;;;;;;5020610;28;20839;-53
2023/12/09 05:56:11;;;;;;;58.93;32.00;;;4.10;99.90;;;;;;5021394;28;21017;-55
2023/12/09 05:58:37;;;;;;;58.77;31.53;;;4.10;99.90;;;;;;5006339;28;20269;-54
2023/12/09 06:01:03;;;;;;;63.43;31.90;;;4.10;99.90;;;;;;5018319;28;20264;-55
2023/12/09 06:03:29;;;;;;;57.93;31.07;;;4.10;99.90;;;;;;4996734;28;20282;-55
2023/12/09 06:05:55;;;;;;;58.73;32.00;;;4.00;99.90;;;;;;5016125;28;20219;-59
2023/12/09 06:08:21;;;;;;;56.50;32.10;;;4.10;99.90;;;;;;5009388;28;20210;-70
2023/12/09 06:10:47;;;;;;;58.13;29.77;;;4.20;99.90;;;;;;5010773;28;20250;-55
2023/12/09 06:13:12;;;;;;;54.53;29.90;;;4.20;99.90;;;;;;5011488;28;20205;-55
2023/12/09 06:15:37;;;;;;;53.00;30.30;;;4.20;99.90;;;;;;5015675;28;20207;-55
2023/12/09 06:18:03;;;;;;;52.17;30.07;;;4.10;99.90;;;;;;5020009;28;20291;-55
2023/12/09 06:20:29;;;;;;;42.43;26.30;;;4.20;99.90;;;;;;5018039;28;20192;-55
2023/12/09 06:22:55;;;;;;;58.87;29.53;;;4.10;99.90;;;;;;5023083;28;20782;-71
2023/12/09 06:25:20;;;;;;;48.43;30.07;;;4.20;99.90;;;;;;5019731;28;20280;-66
2023/12/09 06:27:46;;;;;;;44.37;26.07;;;4.20;99.90;;;;;;5015587;28;20314;-70
2023/12/09 06:30:12;;;;;;;46.27;26.90;;;4.20;99.90;;;;;;5023535;28;20250;-67
2023/12/09 06:32:38;;;;;;;48.07;27.97;;;4.20;99.90;;;;;;5014496;28;20318;-57
2023/12/09 06:35:04;;;;;;;49.00;28.60;;;4.20;99.90;;;;;;4999957;28;20273;-55
2023/12/09 06:37:29;;;;;;;54.30;28.43;;;4.10;99.90;;;;;;5012440;28;20254;-56
2023/12/09 06:39:55;;;;;;;45.20;27.17;;;4.10;99.90;;;;;;5017011;28;20191;-63
2023/12/09 06:42:20;;;;;;;40.83;27.13;;;4.20;99.90;;;;;;5015784;28;20190;-56
2023/12/09 06:44:46;;;;;;;50.30;28.40;;;4.20;99.90;;;;;;5007187;28;20203;-56
2023/12/09 06:47:12;;;;;;;40.30;27.37;;;4.20;99.90;;;;;;5009439;28;20244;-55
2023/12/09 06:49:37;;;;;;;48.43;27.57;;;4.20;99.90;;;;;;5011133;28;20203;-55
2023/12/09 06:52:03;;;;;;;45.27;27.13;;;4.20;99.90;;;;;;5008833;28;20943;-54
2023/12/09 06:54:29;;;;;;;39.40;22.97;;;4.10;99.90;;;;;;4991288;28;20230;-55
2023/12/09 06:56:56;;;;;;;50.27;26.43;;;4.10;99.90;;;;;;4994666;28;20865;-57
2023/12/09 06:59:22;;;;;;;38.53;25.90;;;4.20;99.90;;;;;;4995149;28;20662;-56
2023/12/09 07:01:49;;;;;;;39.60;25.83;;;4.20;99.90;;;;;;4983277;28;20209;-56
2023/12/09 07:04:15;;;;;;;37.87;25.83;;;4.20;99.90;;;;;;5007916;28;20214;-55
2023/12/09 07:06:40;;;;;;;39.10;26.63;;;4.10;99.90;;;;;;4993350;28;20302;-55
2023/12/09 07:09:07;;;;;;;38.37;25.50;;;4.20;99.90;;;;;;5008109;28;20666;-55
2023/12/09 07:11:33;;;;;;;42.27;26.17;;;4.20;99.90;;;;;;5010418;28;20221;-56
2023/12/09 07:13:58;;;;;;;42.27;25.80;;;4.20;99.90;;;;;;5010998;28;20210;-57
2023/12/09 07:16:24;;;;;;;37.53;24.03;;;4.20;99.90;;;;;;5008519;28;20231;-55
2023/12/09 07:18:50;;;;;;;40.83;24.30;;;4.20;99.90;;;;;;5006345;28;20298;-57
2023/12/09 07:21:16;;;;;;;37.07;25.47;;;4.20;99.90;;;;;;5006954;28;20262;-54
2023/12/09 07:23:43;;;;;;;37.80;24.73;;;4.20;99.90;;;;;;5004694;28;20211;-56
2023/12/09 07:26:08;;;;;;;36.30;24.07;;;4.20;99.90;;;;;;5003629;28;20232;-55
2023/12/09 07:28:35;;;;;;;38.93;25.90;;;4.20;99.90;;;;;;5007950;28;20621;-55
2023/12/09 07:31:00;;;;;;;42.03;24.60;;;4.20;99.90;;;;;;5006809;28;20210;-55
2023/12/09 07:33:26;;;;;;;37.70;24.60;;;4.30;99.90;;;;;;5007038;28;20199;-54
2023/12/09 07:35:51;;;;;;;41.47;25.07;;;4.20;99.90;;;;;;5006025;28;20207;-54
2023/12/09 07:38:20;;;;;;;31.47;23.37;;;4.20;99.90;;;;;;5006389;28;20207;-54
2023/12/09 07:40:46;;;;;;;34.87;23.73;;;4.20;99.90;;;;;;5009827;28;20239;-54
2023/12/09 07:43:12;;;;;;;36.30;24.37;;;4.30;99.90;;;;;;4992325;28;20712;-54
2023/12/09 07:45:38;;;;;;;36.80;21.90;;;4.40;99.90;;;;;;5007356;28;20218;-55
2023/12/09 07:48:04;;;;;;;39.53;23.80;;;4.30;99.90;;;;;;5010787;28;20696;-54
2023/12/09 07:50:32;;;;;;;35.87;23.77;;;4.40;99.90;;;;;;5012998;28;20203;-53
2023/12/09 07:52:58;;;;;;;34.50;23.30;;;4.30;99.90;;;;;;5011518;28;20199;-56
2023/12/09 07:55:24;;;;;;;34.93;23.83;;;4.50;99.90;;;;;;5010632;28;20230;-54
2023/12/09 07:57:50;;;;;;;36.47;24.53;;;4.40;99.90;;;;;;5007536;28;20195;-54
2023/12/09 08:00:17;;;;;;;34.47;23.27;;;4.50;99.90;;;;;;5011050;28;20512;-55
2023/12/09 08:02:42;;;;;;;35.13;21.97;;;4.60;99.90;;;;;;5010904;28;20261;-54
2023/12/09 08:05:08;;;;;;;36.53;22.80;;;4.60;99.90;;;;;;5011379;28;20266;-54
2023/12/09 08:07:34;;;;;;;32.87;20.70;;;4.60;99.90;;;;;;5001684;28;20207;-56
2023/12/09 08:10:00;;;;;;;32.70;23.20;;;4.50;99.90;;;;;;5016705;28;20238;-53
2023/12/09 08:12:26;;;;;;;29.47;21.90;;;4.60;99.90;;;;;;4996998;28;20724;-55
2023/12/09 08:14:52;;;;;;;31.43;21.67;;;4.60;99.90;;;;;;5014754;28;20254;-55
2023/12/09 08:17:18;;;;;;;35.30;22.50;;;4.60;99.90;;;;;;5014747;28;20223;-54
2023/12/09 08:19:43;;;;;;;30.73;21.93;;;4.60;99.90;;;;;;5014650;28;20264;-55
2023/12/09 08:22:09;;;;;;;29.50;21.10;;;4.50;99.90;;;;;;5014485;28;20826;-55
2023/12/09 08:24:34;;;;;;;36.47;23.53;;;4.60;99.90;;;;;;4995236;28;20206;-54
2023/12/09 08:27:00;;;;;;;34.50;22.27;;;4.70;99.90;;;;;;5014475;28;20278;-55
2023/12/09 08:29:25;;;;;;;29.17;20.30;;;4.80;99.90;;;;;;5014560;28;21078;-56
2023/12/09 08:31:51;;;;;;;28.60;20.90;;;4.90;99.90;;;;;;5014564;28;20203;-54
2023/12/09 08:34:17;;;;;;;29.13;19.30;;;4.90;99.90;;;;;;5013133;28;20674;-55
2023/12/09 08:36:42;;;;;;;29.00;20.60;;;4.80;99.90;;;;;;5014013;28;20237;-54
2023/12/09 08:39:08;;;;;;;32.60;21.63;;;4.80;99.90;;;;;;5014643;28;20220;-58
2023/12/09 08:41:34;;;;;;;26.20;19.23;;;4.80;99.90;;;;;;5015879;28;20195;-55
2023/12/09 08:43:59;;;;;;;29.63;19.57;;;4.70;99.90;;;;;;4991521;28;20282;-54
2023/12/09 08:46:25;;;;;;;28.80;19.60;;;4.80;99.90;;;;;;4996535;28;20571;-55
2023/12/09 08:48:50;;;;;;;27.40;20.33;;;4.80;99.90;;;;;;5014263;28;20218;-54
2023/12/09 08:51:16;;;;;;;30.70;20.60;;;4.90;99.90;;;;;;5014516;28;20195;-54
2023/12/09 08:53:41;;;;;;;27.07;19.27;;;4.90;99.90;;;;;;5011399;28;20203;-54
2023/12/09 08:56:07;;;;;;;31.80;21.07;;;4.80;99.90;;;;;;4998404;28;20236;-54
2023/12/09 08:58:33;;;;;;;28.90;20.73;;;4.80;99.90;;;;;;5016061;28;20922;-54
2023/12/09 09:00:59;;;;;;;34.30;20.43;;;4.90;99.90;;;;;;5019583;28;20205;-55
2023/12/09 09:03:25;;;;;;;29.40;20.77;;;4.90;99.90;;;;;;5017331;28;20207;-55
2023/12/09 09:05:51;;;;;;;30.37;21.00;;;4.90;99.90;;;;;;5022325;28;20214;-54
2023/12/09 09:08:17;;;;;;;27.13;20.63;;;4.90;99.90;;;;;;5020662;28;20191;-54
2023/12/09 09:10:42;;;;;;;26.30;18.80;;;5.00;99.90;;;;;;5020705;28;20269;-54
2023/12/09 09:13:08;;;;;;;25.73;19.13;;;5.00;99.90;;;;;;5023018;28;20265;-54
2023/12/09 09:15:35;;;;;;;27.10;18.63;;;5.10;99.90;;;;;;5020173;28;20665;-54
2023/12/09 09:18:01;;;;;;;25.43;18.27;;;5.20;99.90;;;;;;5024180;28;20213;-54
2023/12/09 09:20:27;;;;;;;23.90;18.23;;;5.30;99.90;;;;;;5018678;28;20557;-54
2023/12/09 09:22:52;;;;;;;25.03;19.37;;;5.30;99.90;;;;;;5016291;28;20602;-54
2023/12/09 09:25:18;;;;;;;25.87;18.57;;;5.30;99.90;;;;;;5020805;28;20724;-54
2023/12/09 09:27:43;;;;;;;26.27;17.53;;;5.30;99.90;;;;;;5016969;28;20250;-54
2023/12/09 09:30:09;;;;;;;24.07;17.33;;;5.20;99.90;;;;;;5021907;28;20195;-55
2023/12/09 09:32:35;;;;;;;23.97;17.50;;;5.20;99.90;;;;;;5022283;28;20959;-54
2023/12/09 09:35:01;;;;;;;27.80;17.70;;;5.30;99.90;;;;;;5014673;28;20218;-54
2023/12/09 09:37:29;;;;;;;25.30;19.00;;;5.30;99.90;;;;;;5014754;28;20198;-54
2023/12/09 09:39:54;;;;;;;24.27;18.57;;;5.30;99.90;;;;;;5013828;28;20272;-54
2023/12/09 09:42:34;;;;;;;26.20;18.53;;;5.20;99.90;;;;;;5015488;28;20211;-55
2023/12/09 09:45:22;;;;;;;24.43;19.57;;;5.30;99.90;;;;;;5009325;28;20198;-55
2023/12/09 09:47:55;;;;;;;28.63;18.33;;;5.20;99.90;;;;;;5016824;28;20207;-55
2023/12/09 09:50:22;;;;;;;27.30;18.07;;;5.30;99.90;;;;;;5021500;28;20202;-56
2023/12/09 09:52:49;;;;;;;26.30;19.13;;;5.30;99.90;;;;;;5017948;28;20227;-54
2023/12/09 09:55:17;;;;;;;25.63;18.90;;;5.30;99.90;;;;;;5020268;28;20219;-54
2023/12/09 09:57:43;;;;;;;25.30;18.27;;;5.40;99.90;;;;;;4995139;28;20766;-54
2023/12/09 10:00:16;;;;;;;24.97;18.27;;;5.30;99.90;;;;;;5017507;28;20739;-54
2023/12/09 10:02:46;;;;;;;26.97;19.30;;;5.40;99.90;;;;;;5019536;28;20209;-54
2023/12/09 10:05:13;;;;;;;24.67;18.00;;;5.30;99.90;;;;;;5002366;28;20297;-55
2023/12/09 10:07:39;;;;;;;27.10;18.10;;;5.20;99.90;;;;;;5015276;28;20203;-54
2023/12/09 10:10:08;;;;;;;26.57;17.80;;;5.20;99.90;;;;;;5014653;28;20202;-55
2023/12/09 10:12:37;;;;;;;30.47;21.30;;;5.30;99.90;;;;;;5016940;28;20206;-55
2023/12/09 10:15:04;;;;;;;29.37;19.00;;;5.30;99.90;;;;;;5016722;28;20206;-54
2023/12/09 10:17:31;;;;;;;23.03;17.83;;;5.20;99.90;;;;;;5016288;28;20233;-54
2023/12/09 10:19:57;;;;;;;27.23;16.80;;;5.30;99.90;;;;;;5017981;28;20214;-55
2023/12/09 10:22:24;;;;;;;30.00;19.10;;;5.30;99.90;;;;;;5010536;28;20202;-54
2023/12/09 10:24:51;;;;;;;30.60;18.50;;;5.30;99.90;;;;;;5020598;28;20715;-55
2023/12/09 10:27:19;;;;;;;24.13;17.10;;;5.30;99.90;;;;;;5023981;28;20730;-55
2023/12/09 10:29:44;;;;;;;26.10;17.53;;;5.40;99.90;;;;;;5019610;28;20634;-55
2023/12/09 10:32:12;;;;;;;24.83;17.87;;;5.30;99.90;;;;;;5022046;28;20254;-55
2023/12/09 10:34:38;;;;;;;29.73;18.17;;;5.40;99.90;;;;;;5014643;28;20692;-55
2023/12/09 10:37:04;;;;;;;26.87;16.83;;;5.50;99.90;;;;;;5018232;28;20194;-55
2023/12/09 10:39:31;;;;;;;24.37;17.80;;;5.60;99.90;;;;;;5017147;28;20265;-55
2023/12/09 10:41:57;;;;;;;30.30;20.57;;;5.60;99.90;;;;;;5018951;28;20287;-54
2023/12/09 10:44:23;;;;;;;25.47;16.33;;;5.70;99.90;;;;;;5010824;28;20226;-58
2023/12/09 10:46:48;;;;;;;23.67;16.73;;;5.60;99.90;;;;;;4993269;28;20241;-57
2023/12/09 10:49:14;;;;;;;19.50;15.07;;;5.70;99.90;;;;;;5008513;28;20207;-55
2023/12/09 10:51:39;;;;;;;21.03;14.27;;;5.60;99.90;;;;;;5009354;28;20261;-56
2023/12/09 10:54:05;;;;;;;23.73;16.30;;;5.80;99.90;;;;;;5011031;28;20216;-55
2023/12/09 10:56:31;;;;;;;24.33;16.63;;;5.80;99.90;;;;;;4977928;28;20746;-55
2023/12/09 10:58:57;;;;;;;19.10;15.00;;;5.90;99.90;;;;;;4994822;28;20204;-56
2023/12/09 11:01:23;;;;;;;23.37;15.40;;;5.80;99.90;;;;;;4994533;28;20242;-53
2023/12/09 11:03:48;;;;;;;25.60;18.43;;;5.90;99.90;;;;;;4994377;28;20774;-55
2023/12/09 11:06:16;;;;;;;24.23;14.87;;;6.00;99.90;;;;;;4992561;28;20286;-55
2023/12/09 11:08:42;;;;;;;21.17;14.83;;;6.00;99.90;;;;;;4992967;28;20206;-54
2023/12/09 11:11:09;;;;;;;22.33;15.53;;;6.10;99.90;;;;;;4997234;28;20292;-54
2023/12/09 11:13:36;;;;;;;22.50;15.10;;;6.00;99.90;;;;;;4992233;28;20211;-55
2023/12/09 11:16:28;;;;;;;26.07;16.73;;;6.00;99.90;;;;;;4998308;28;20810;-54
2023/12/09 11:18:57;;;;;;;21.60;14.93;;;6.20;99.90;;;;;;4993221;28;20457;-54
2023/12/09 11:21:28;;;;;;;16.63;13.67;;;6.20;99.90;;;;;;4991167;28;20203;-58
2023/12/09 11:23:56;;;;;;;20.73;14.07;;;6.30;99.90;;;;;;4986883;28;20196;-61
2023/12/09 11:26:32;;;;;;;18.47;14.90;;;6.20;99.90;;;;;;4996773;28;20220;-61
2023/12/09 11:29:06;;;;;;;16.83;12.73;;;6.50;99.90;;;;;;4995502;28;20192;-65
2023/12/09 11:31:36;;;;;;;18.07;11.43;;;6.50;99.90;;;;;;4980815;28;20254;-61
2023/12/09 11:34:03;;;;;;;16.40;12.73;;;6.50;99.90;;;;;;5000946;28;20606;-55
2023/12/09 11:36:30;;;;;;;18.23;12.57;;;6.60;99.90;;;;;;4984735;28;20682;-54
2023/12/09 11:38:57;;;;;;;18.07;12.53;;;6.50;99.90;;;;;;4996044;28;20823;-56
2023/12/09 11:41:23;;;;;;;16.53;13.00;;;6.50;99.90;;;;;;4996576;28;21046;-56
2023/12/09 11:43:49;;;;;;;21.73;13.30;;;6.40;99.90;;;;;;4999897;28;20694;-56
2023/12/09 11:46:14;;;;;;;18.23;11.97;;;6.40;99.90;;;;;;5001575;28;20209;-57
2023/12/09 11:48:40;;;;;;;23.43;11.67;;;6.40;99.90;;;;;;5002713;28;20711;-57
2023/12/09 11:51:07;;;;;;;16.50;13.03;;;6.40;99.90;;;;;;4996477;28;20760;-58
2023/12/09 11:53:33;;;;;;;15.07;11.67;;;6.30;99.90;;;;;;4993723;28;20294;-63
2023/12/09 11:55:58;;;;;;;16.87;11.27;;;6.30;99.90;;;;;;5008080;28;20194;-62
2023/12/09 11:58:24;;;;;;;19.27;11.53;;;6.30;99.90;;;;;;5010775;28;20400;-62
2023/12/09 12:00:50;;;;;;;13.67;10.63;;;6.30;99.90;;;;;;5022341;28;20210;-62
2023/12/09 12:03:15;;;;;;;14.63;10.67;;;6.30;99.90;;;;;;5021433;28;20199;-55
2023/12/09 12:05:41;;;;;;;18.83;10.60;;;6.40;99.90;;;;;;5023369;28;20303;-56
2023/12/09 12:08:07;;;;;;;14.63;10.20;;;6.50;99.90;;;;;;5023143;28;20217;-56
2023/12/09 12:10:33;;;;;;;13.30;9.93;;;6.40;99.90;;;;;;5000942;28;20199;-55
2023/12/09 12:13:00;;;;;;;15.17;11.83;;;6.40;99.90;;;;;;5020491;28;20261;-55
2023/12/09 12:15:26;;;;;;;13.77;10.20;;;6.50;99.90;;;;;;5022867;28;20212;-58
2023/12/09 12:17:53;;;;;;;14.63;9.40;;;6.50;99.90;;;;;;5022666;28;20203;-55
2023/12/09 12:20:19;;;;;;;13.83;9.27;;;6.50;99.90;;;;;;5020968;28;20195;-55
2023/12/09 12:22:45;;;;;;;12.63;10.30;;;6.50;99.90;;;;;;5025928;28;20295;-56
2023/12/09 12:25:10;;;;;;;14.77;10.20;;;6.60;99.90;;;;;;5000131;28;20223;-57
2023/12/09 12:27:37;;;;;;;15.67;9.33;;;6.50;99.90;;;;;;5017931;28;20195;-59
2023/12/09 12:30:06;;;;;;;14.00;10.10;;;6.60;99.90;;;;;;5017660;28;20203;-56
2023/12/09 12:32:37;;;;;;;10.80;9.53;;;6.70;99.90;;;;;;5006920;28;20207;-59